sensor_id;sensor_type;location;lat;lon;timestamp;pressure;altitude;pressure_sealevel;temperature;humidity
19005;BME280;9635;52.078;8.648;2022-12-04T00:02:04;100805.50;;;0.06;71.84
19005;BME280;9635;52.078;8.648;2022-12-04T00:07:08;100808.81;;;0.12;71.92
19005;BME280;9635;52.078;8.648;2022-12-04T00:12:11;100806.50;;;0.02;71.57
19005;BME280;9635;52.078;8.648;2022-12-04T00:17:13;100804.00;;;-0.03;71.85
19005;BME280;9635;52.078;8.648;2022-12-04T00:22:18;100796.25;;;-0.09;71.89
19005;BME280;9635;52.078;8.648;2022-12-04T00:27:21;100801.63;;;-0.12;71.75
19005;BME280;9635;52.078;8.648;2022-12-04T00:32:24;100792.16;;;-0.19;72.33
19005;BME280;9635;52.078;8.648;2022-12-04T00:37:28;100798.97;;;-0.11;72.30
19005;BME280;9635;52.078;8.648;2022-12-04T00:42:31;100788.81;;;-0.24;72.65
19005;BME280;9635;52.078;8.648;2022-12-04T00:47:34;100784.19;;;-0.18;72.40
19005;BME280;9635;52.078;8.648;2022-12-04T00:52:38;100779.03;;;-0.22;73.16
19005;BME280;9635;52.078;8.648;2022-12-04T00:57:41;100774.72;;;-0.25;73.02
19005;BME280;9635;52.078;8.648;2022-12-04T01:02:44;100777.31;;;-0.22;72.88
19005;BME280;9635;52.078;8.648;2022-12-04T01:07:48;100779.94;;;-0.22;73.01
19005;BME280;9635;52.078;8.648;2022-12-04T01:12:51;100778.06;;;-0.18;72.99
19005;BME280;9635;52.078;8.648;2022-12-04T01:17:54;100771.91;;;-0.19;72.85
19005;BME280;9635;52.078;8.648;2022-12-04T01:22:58;100772.16;;;-0.26;73.20
19005;BME280;9635;52.078;8.648;2022-12-04T01:28:01;100772.16;;;-0.26;73.48
19005;BME280;9635;52.078;8.648;2022-12-04T01:33:04;100777.47;;;-0.28;73.47
19005;BME280;9635;52.078;8.648;2022-12-04T01:38:08;100768.03;;;-0.37;73.89
19005;BME280;9635;52.078;8.648;2022-12-04T01:43:11;100773.13;;;-0.31;74.17
19005;BME280;9635;52.078;8.648;2022-12-04T01:48:21;100769.84;;;-0.39;74.17
19005;BME280;9635;52.078;8.648;2022-12-04T01:53:29;100770.56;;;-0.32;73.83
19005;BME280;9635;52.078;8.648;2022-12-04T01:58:36;100778.31;;;-0.28;73.94
19005;BME280;9635;52.078;8.648;2022-12-04T02:03:41;100768.69;;;-0.29;73.87
19005;BME280;9635;52.078;8.648;2022-12-04T02:08:46;100769.41;;;-0.23;73.68
19005;BME280;9635;52.078;8.648;2022-12-04T02:13:56;100764.16;;;-0.25;73.76
19005;BME280;9635;52.078;8.648;2022-12-04T02:19:12;100759.28;;;-0.39;73.75
19005;BME280;9635;52.078;8.648;2022-12-04T02:24:38;100755.91;;;-0.44;73.89
19005;BME280;9635;52.078;8.648;2022-12-04T02:29:56;100756.50;;;-0.33;73.75
19005;BME280;9635;52.078;8.648;2022-12-04T02:35:03;100756.56;;;-0.36;73.36
19005;BME280;9635;52.078;8.648;2022-12-04T02:40:12;100758.13;;;-0.29;73.61
19005;BME280;9635;52.078;8.648;2022-12-04T02:45:19;100764.34;;;-0.31;73.47
19005;BME280;9635;52.078;8.648;2022-12-04T02:50:25;100754.66;;;-0.31;73.04
19005;BME280;9635;52.078;8.648;2022-12-04T02:55:34;100749.44;;;-0.32;73.29
19005;BME280;9635;52.078;8.648;2022-12-04T03:00:41;100732.47;;;-0.25;72.67
19005;BME280;9635;52.078;8.648;2022-12-04T03:05:50;100721.97;;;-0.26;72.64
19005;BME280;9635;52.078;8.648;2022-12-04T03:10:57;100732.63;;;-0.30;72.89
19005;BME280;9635;52.078;8.648;2022-12-04T03:16:07;100743.84;;;-0.21;72.53
19005;BME280;9635;52.078;8.648;2022-12-04T03:21:15;100739.72;;;-0.32;72.96
19005;BME280;9635;52.078;8.648;2022-12-04T03:26:24;100745.66;;;-0.23;72.84
19005;BME280;9635;52.078;8.648;2022-12-04T03:31:34;100741.41;;;-0.29;73.12
19005;BME280;9635;52.078;8.648;2022-12-04T03:36:45;100751.84;;;-0.24;73.52
19005;BME280;9635;52.078;8.648;2022-12-04T03:41:54;100739.59;;;-0.27;73.29
19005;BME280;9635;52.078;8.648;2022-12-04T03:47:06;100743.72;;;-0.18;73.71
19005;BME280;9635;52.078;8.648;2022-12-04T03:52:14;100739.41;;;-0.21;73.74
19005;BME280;9635;52.078;8.648;2022-12-04T03:57:21;100738.72;;;-0.28;74.20
19005;BME280;9635;52.078;8.648;2022-12-04T04:02:32;100740.38;;;-0.23;74.83
19005;BME280;9635;52.078;8.648;2022-12-04T04:07:39;100742.28;;;-0.29;75.16
19005;BME280;9635;52.078;8.648;2022-12-04T04:12:47;100738.00;;;-0.33;75.18
19005;BME280;9635;52.078;8.648;2022-12-04T04:18:13;100744.09;;;-0.31;75.59
19005;BME280;9635;52.078;8.648;2022-12-04T04:23:38;100735.13;;;-0.25;75.40
19005;BME280;9635;52.078;8.648;2022-12-04T04:29:00;100741.09;;;-0.18;75.38
19005;BME280;9635;52.078;8.648;2022-12-04T04:34:09;100740.41;;;-0.25;75.33
19005;BME280;9635;52.078;8.648;2022-12-04T04:39:22;100748.25;;;-0.22;75.59
19005;BME280;9635;52.078;8.648;2022-12-04T04:44:31;100744.91;;;-0.29;75.83
19005;BME280;9635;52.078;8.648;2022-12-04T04:49:38;100748.25;;;-0.22;75.36
19005;BME280;9635;52.078;8.648;2022-12-04T04:54:43;100743.88;;;-0.23;75.83
19005;BME280;9635;52.078;8.648;2022-12-04T04:59:46;100746.28;;;-0.15;75.14
19005;BME280;9635;52.078;8.648;2022-12-04T05:04:50;100745.63;;;-0.22;75.11
19005;BME280;9635;52.078;8.648;2022-12-04T05:09:53;100747.38;;;-0.22;75.03
19005;BME280;9635;52.078;8.648;2022-12-04T05:14:56;100747.25;;;-0.19;75.12
19005;BME280;9635;52.078;8.648;2022-12-04T05:20:00;100738.47;;;-0.20;74.66
19005;BME280;9635;52.078;8.648;2022-12-04T05:25:03;100754.19;;;-0.15;74.64
19005;BME280;9635;52.078;8.648;2022-12-04T05:30:08;100748.63;;;-0.06;74.41
19005;BME280;9635;52.078;8.648;2022-12-04T05:35:13;100749.66;;;-0.10;74.21
19005;BME280;9635;52.078;8.648;2022-12-04T05:40:15;100748.44;;;0.00;74.21
19005;BME280;9635;52.078;8.648;2022-12-04T05:45:18;100740.25;;;0.08;73.95
19005;BME280;9635;52.078;8.648;2022-12-04T05:50:22;100735.94;;;0.05;73.55
19005;BME280;9635;52.078;8.648;2022-12-04T05:55:25;100730.66;;;0.05;73.62
19005;BME280;9635;52.078;8.648;2022-12-04T06:00:28;100740.47;;;0.02;73.48
19005;BME280;9635;52.078;8.648;2022-12-04T06:05:33;100748.25;;;0.06;73.73
19005;BME280;9635;52.078;8.648;2022-12-04T06:10:35;100748.44;;;0.00;73.40
19005;BME280;9635;52.078;8.648;2022-12-04T06:15:39;100738.56;;;0.05;73.74
19005;BME280;9635;52.078;8.648;2022-12-04T06:20:43;100744.06;;;-0.01;73.96
19005;BME280;9635;52.078;8.648;2022-12-04T06:25:46;100736.09;;;0.01;73.73
19005;BME280;9635;52.078;8.648;2022-12-04T06:30:49;100729.97;;;0.00;74.20
19005;BME280;9635;52.078;8.648;2022-12-04T06:35:58;100738.66;;;0.04;74.19
19005;BME280;9635;52.078;8.648;2022-12-04T06:41:02;100733.41;;;0.02;74.00
19005;BME280;9635;52.078;8.648;2022-12-04T06:46:07;100730.72;;;0.04;74.02
19005;BME280;9635;52.078;8.648;2022-12-04T06:51:14;100739.63;;;-0.00;74.11
19005;BME280;9635;52.078;8.648;2022-12-04T06:56:19;100744.03;;;0.01;74.36
19005;BME280;9635;52.078;8.648;2022-12-04T07:01:24;100746.59;;;0.02;74.60
19005;BME280;9635;52.078;8.648;2022-12-04T07:06:30;100739.50;;;0.04;74.61
19005;BME280;9635;52.078;8.648;2022-12-04T07:11:34;100740.44;;;0.03;74.79
19005;BME280;9635;52.078;8.648;2022-12-04T07:16:38;100738.69;;;0.02;74.61
19005;BME280;9635;52.078;8.648;2022-12-04T07:21:44;100747.47;;;0.03;75.11
19005;BME280;9635;52.078;8.648;2022-12-04T07:26:47;100757.88;;;0.07;74.95
19005;BME280;9635;52.078;8.648;2022-12-04T07:31:50;100769.19;;;0.12;74.90
19005;BME280;9635;52.078;8.648;2022-12-04T07:36:54;100770.91;;;0.13;74.59
19005;BME280;9635;52.078;8.648;2022-12-04T07:41:57;100768.22;;;0.15;75.00
19005;BME280;9635;52.078;8.648;2022-12-04T07:47:00;100768.31;;;0.12;75.50
19005;BME280;9635;52.078;8.648;2022-12-04T07:52:04;100763.59;;;0.22;75.27
19005;BME280;9635;52.078;8.648;2022-12-04T07:57:07;100769.66;;;0.25;75.40
19005;BME280;9635;52.078;8.648;2022-12-04T08:02:11;100759.47;;;0.13;75.66
19005;BME280;9635;52.078;8.648;2022-12-04T08:07:15;100759.84;;;0.29;75.70
19005;BME280;9635;52.078;8.648;2022-12-04T08:12:18;100746.78;;;0.24;75.59
19005;BME280;9635;52.078;8.648;2022-12-04T08:17:21;100738.84;;;0.24;75.74
19005;BME280;9635;52.078;8.648;2022-12-04T08:22:26;100750.22;;;0.28;76.08
19005;BME280;9635;52.078;8.648;2022-12-04T08:27:28;100749.16;;;0.33;76.26
19005;BME280;9635;52.078;8.648;2022-12-04T08:32:32;100760.69;;;0.31;76.59
19005;BME280;9635;52.078;8.648;2022-12-04T08:37:36;100751.63;;;0.38;76.31
19005;BME280;9635;52.078;8.648;2022-12-04T08:42:39;100759.53;;;0.38;76.38
19005;BME280;9635;52.078;8.648;2022-12-04T08:47:42;100752.53;;;0.37;76.55
19005;BME280;9635;52.078;8.648;2022-12-04T08:52:53;100768.44;;;0.35;76.75
19005;BME280;9635;52.078;8.648;2022-12-04T08:57:56;100764.03;;;0.36;76.64
19005;BME280;9635;52.078;8.648;2022-12-04T09:02:59;100759.31;;;0.46;76.43
19005;BME280;9635;52.078;8.648;2022-12-04T09:08:04;100758.97;;;0.55;76.49
19005;BME280;9635;52.078;8.648;2022-12-04T09:13:07;100768.44;;;0.62;76.10
19005;BME280;9635;52.078;8.648;2022-12-04T09:18:10;100755.19;;;0.64;75.79
19005;BME280;9635;52.078;8.648;2022-12-04T09:23:14;100752.25;;;0.71;75.74
19005;BME280;9635;52.078;8.648;2022-12-04T09:28:17;100753.91;;;0.75;75.45
19005;BME280;9635;52.078;8.648;2022-12-04T09:33:20;100757.50;;;0.73;75.50
19005;BME280;9635;52.078;8.648;2022-12-04T09:38:24;100759.50;;;0.66;75.22
19005;BME280;9635;52.078;8.648;2022-12-04T09:43:31;100758.00;;;0.84;74.75
19005;BME280;9635;52.078;8.648;2022-12-04T09:48:40;100748.38;;;0.81;74.62
19005;BME280;9635;52.078;8.648;2022-12-04T09:53:48;100751.81;;;0.85;74.39
19005;BME280;9635;52.078;8.648;2022-12-04T09:58:54;100744.63;;;0.89;74.40
19005;BME280;9635;52.078;8.648;2022-12-04T10:03:58;100749.25;;;0.82;74.35
19005;BME280;9635;52.078;8.648;2022-12-04T10:09:15;100745.75;;;1.06;74.21
19005;BME280;9635;52.078;8.648;2022-12-04T10:14:41;100735.53;;;0.96;74.18
19005;BME280;9635;52.078;8.648;2022-12-04T10:19:51;100748.75;;;0.96;74.21
19005;BME280;9635;52.078;8.648;2022-12-04T10:25:03;100744.72;;;1.11;73.79
19005;BME280;9635;52.078;8.648;2022-12-04T10:30:15;100742.97;;;1.10;74.00
19005;BME280;9635;52.078;8.648;2022-12-04T10:35:23;100748.75;;;0.96;74.07
19005;BME280;9635;52.078;8.648;2022-12-04T10:40:31;100745.34;;;1.17;73.97
19005;BME280;9635;52.078;8.648;2022-12-04T10:45:36;100748.84;;;1.18;73.89
19005;BME280;9635;52.078;8.648;2022-12-04T10:50:39;100743.25;;;1.27;73.41
19005;BME280;9635;52.078;8.648;2022-12-04T10:55:43;100736.28;;;1.24;73.45
19005;BME280;9635;52.078;8.648;2022-12-04T11:00:59;100732.59;;;1.28;73.60
19005;BME280;9635;52.078;8.648;2022-12-04T11:06:04;100734.22;;;1.33;73.21
19005;BME280;9635;52.078;8.648;2022-12-04T11:11:12;100724.88;;;1.22;73.25
19005;BME280;9635;52.078;8.648;2022-12-04T11:16:32;100722.13;;;1.25;73.47
19005;BME280;9635;52.078;8.648;2022-12-04T11:21:37;100723.50;;;1.36;73.48
19005;BME280;9635;52.078;8.648;2022-12-04T11:26:41;100711.94;;;1.38;73.29
19005;BME280;9635;52.078;8.648;2022-12-04T11:31:47;100715.09;;;1.24;73.37
19005;BME280;9635;52.078;8.648;2022-12-04T11:36:52;100720.28;;;1.27;73.61
19005;BME280;9635;52.078;8.648;2022-12-04T11:42:02;100713.16;;;1.30;73.44
19005;BME280;9635;52.078;8.648;2022-12-04T11:47:16;100715.53;;;1.37;73.43
19005;BME280;9635;52.078;8.648;2022-12-04T11:52:24;100707.63;;;1.36;73.44
19005;BME280;9635;52.078;8.648;2022-12-04T11:57:36;100693.94;;;1.24;73.73
19005;BME280;9635;52.078;8.648;2022-12-04T12:03:05;100690.06;;;1.33;73.45
19005;BME280;9635;52.078;8.648;2022-12-04T12:08:18;100680.59;;;1.27;73.44
19005;BME280;9635;52.078;8.648;2022-12-04T12:13:34;100685.88;;;1.27;73.43
19005;BME280;9635;52.078;8.648;2022-12-04T12:19:02;100684.22;;;1.25;73.29
19005;BME280;9635;52.078;8.648;2022-12-04T12:24:23;100681.06;;;1.15;73.85
19005;BME280;9635;52.078;8.648;2022-12-04T12:29:45;100682.50;;;1.24;73.52
19005;BME280;9635;52.078;8.648;2022-12-04T12:34:52;100676.44;;;1.20;73.57
19005;BME280;9635;52.078;8.648;2022-12-04T12:39:58;100671.38;;;1.14;73.50
19005;BME280;9635;52.078;8.648;2022-12-04T12:45:15;100659.06;;;1.13;73.67
19005;BME280;9635;52.078;8.648;2022-12-04T12:50:23;100661.53;;;1.18;73.69
19005;BME280;9635;52.078;8.648;2022-12-04T12:55:30;100652.41;;;1.26;73.20
19005;BME280;9635;52.078;8.648;2022-12-04T13:00:41;100645.78;;;1.15;73.49
19005;BME280;9635;52.078;8.648;2022-12-04T13:05:47;100645.19;;;1.30;73.21
19005;BME280;9635;52.078;8.648;2022-12-04T13:11:00;100647.03;;;1.28;73.22
19005;BME280;9635;52.078;8.648;2022-12-04T13:16:08;100632.69;;;1.34;72.97
19005;BME280;9635;52.078;8.648;2022-12-04T13:21:27;100630.81;;;1.37;72.82
19005;BME280;9635;52.078;8.648;2022-12-04T13:26:41;100618.31;;;1.41;72.96
19005;BME280;9635;52.078;8.648;2022-12-04T13:31:58;100608.69;;;1.38;72.72
19005;BME280;9635;52.078;8.648;2022-12-04T13:37:20;100613.59;;;1.25;72.94
19005;BME280;9635;52.078;8.648;2022-12-04T13:42:28;100608.44;;;1.22;73.43
19005;BME280;9635;52.078;8.648;2022-12-04T13:47:33;100615.09;;;1.33;73.16
19005;BME280;9635;52.078;8.648;2022-12-04T13:52:38;100614.91;;;1.15;73.52
19005;BME280;9635;52.078;8.648;2022-12-04T13:57:51;100605.50;;;1.06;74.02
19005;BME280;9635;52.078;8.648;2022-12-04T14:02:58;100592.47;;;1.02;74.12
19005;BME280;9635;52.078;8.648;2022-12-04T14:08:05;100597.78;;;1.02;74.02
19005;BME280;9635;52.078;8.648;2022-12-04T14:13:17;100601.25;;;1.02;74.11
19005;BME280;9635;52.078;8.648;2022-12-04T14:18:27;100595.28;;;0.97;74.22
19005;BME280;9635;52.078;8.648;2022-12-04T14:23:36;100595.69;;;1.10;74.17
19005;BME280;9635;52.078;8.648;2022-12-04T14:28:40;100591.78;;;0.97;74.66
19005;BME280;9635;52.078;8.648;2022-12-04T14:33:49;100593.50;;;0.98;74.52
19005;BME280;9635;52.078;8.648;2022-12-04T14:39:07;100602.97;;;1.03;74.72
19005;BME280;9635;52.078;8.648;2022-12-04T14:44:22;100615.50;;;0.98;74.86
19005;BME280;9635;52.078;8.648;2022-12-04T14:49:37;100611.84;;;1.02;74.86
19005;BME280;9635;52.078;8.648;2022-12-04T14:54:50;100614.66;;;0.98;75.20
19005;BME280;9635;52.078;8.648;2022-12-04T14:59:55;100637.59;;;0.97;75.29
19005;BME280;9635;52.078;8.648;2022-12-04T15:05:01;100644.91;;;0.91;75.37
19005;BME280;9635;52.078;8.648;2022-12-04T15:10:18;100642.31;;;0.89;75.72
19005;BME280;9635;52.078;8.648;2022-12-04T15:15:43;100665.19;;;0.90;76.04
19005;BME280;9635;52.078;8.648;2022-12-04T15:20:54;100652.44;;;1.01;75.84
19005;BME280;9635;52.078;8.648;2022-12-04T15:26:00;100657.09;;;0.95;76.21
19005;BME280;9635;52.078;8.648;2022-12-04T15:31:05;100654.56;;;0.92;76.51
19005;BME280;9635;52.078;8.648;2022-12-04T15:36:16;100648.22;;;0.96;76.38
19005;BME280;9635;52.078;8.648;2022-12-04T15:41:29;100644.00;;;0.92;76.58
19005;BME280;9635;52.078;8.648;2022-12-04T15:46:34;100639.41;;;0.97;76.88
19005;BME280;9635;52.078;8.648;2022-12-04T15:51:40;100642.22;;;0.92;76.77
19005;BME280;9635;52.078;8.648;2022-12-04T15:56:42;100636.88;;;0.94;76.75
19005;BME280;9635;52.078;8.648;2022-12-04T16:01:45;100644.97;;;0.89;77.21
19005;BME280;9635;52.078;8.648;2022-12-04T16:06:50;100651.34;;;0.83;77.14
19005;BME280;9635;52.078;8.648;2022-12-04T16:11:59;100653.84;;;0.88;77.38
19005;BME280;9635;52.078;8.648;2022-12-04T16:17:02;100659.44;;;0.79;77.79
19005;BME280;9635;52.078;8.648;2022-12-04T16:22:12;100664.38;;;0.65;78.59
19005;BME280;9635;52.078;8.648;2022-12-04T16:27:22;100661.81;;;0.87;78.20
19005;BME280;9635;52.078;8.648;2022-12-04T16:32:31;100663.59;;;0.86;78.11
19005;BME280;9635;52.078;8.648;2022-12-04T16:37:35;100656.41;;;0.90;78.19
19005;BME280;9635;52.078;8.648;2022-12-04T16:42:38;100656.34;;;0.91;78.29
19005;BME280;9635;52.078;8.648;2022-12-04T16:47:42;100652.84;;;0.91;78.43
19005;BME280;9635;52.078;8.648;2022-12-04T16:52:47;100655.66;;;0.86;78.33
19005;BME280;9635;52.078;8.648;2022-12-04T16:57:49;100659.16;;;0.87;78.55
19005;BME280;9635;52.078;8.648;2022-12-04T17:02:52;100646.69;;;0.90;78.47
19005;BME280;9635;52.078;8.648;2022-12-04T17:07:57;100654.00;;;0.83;78.82
19005;BME280;9635;52.078;8.648;2022-12-04T17:12:59;100657.50;;;0.84;78.74
19005;BME280;9635;52.078;8.648;2022-12-04T17:18:02;100660.25;;;0.81;78.81
19005;BME280;9635;52.078;8.648;2022-12-04T17:23:14;100672.63;;;0.80;79.32
19005;BME280;9635;52.078;8.648;2022-12-04T17:28:17;100679.50;;;0.84;79.29
19005;BME280;9635;52.078;8.648;2022-12-04T17:33:20;100687.75;;;0.77;79.28
19005;BME280;9635;52.078;8.648;2022-12-04T17:38:24;100684.88;;;0.83;79.11
19005;BME280;9635;52.078;8.648;2022-12-04T17:43:27;100689.91;;;0.91;78.79
19005;BME280;9635;52.078;8.648;2022-12-04T17:48:30;100698.69;;;0.91;78.95
19005;BME280;9635;52.078;8.648;2022-12-04T17:53:35;100689.69;;;0.95;78.56
19005;BME280;9635;52.078;8.648;2022-12-04T17:58:39;100684.38;;;0.97;78.59
19005;BME280;9635;52.078;8.648;2022-12-04T18:03:42;100682.53;;;0.99;78.72
19005;BME280;9635;52.078;8.648;2022-12-04T18:08:47;100676.34;;;0.98;78.72
19005;BME280;9635;52.078;8.648;2022-12-04T18:13:54;100677.19;;;1.00;78.92
19005;BME280;9635;52.078;8.648;2022-12-04T18:18:58;100676.34;;;0.98;78.91
19005;BME280;9635;52.078;8.648;2022-12-04T18:24:03;100676.44;;;0.97;79.48
19005;BME280;9635;52.078;8.648;2022-12-04T18:29:07;100677.25;;;0.99;79.44
19005;BME280;9635;52.078;8.648;2022-12-04T18:34:11;100675.72;;;0.92;79.64
19005;BME280;9635;52.078;8.648;2022-12-04T18:39:16;100673.91;;;0.94;79.50
19005;BME280;9635;52.078;8.648;2022-12-04T18:44:19;100672.03;;;0.96;79.55
19005;BME280;9635;52.078;8.648;2022-12-04T18:49:22;100674.53;;;1.00;79.53
19005;BME280;9635;52.078;8.648;2022-12-04T18:54:26;100664.88;;;0.99;79.41
19005;BME280;9635;52.078;8.648;2022-12-04T18:59:29;100663.94;;;1.00;79.34
19005;BME280;9635;52.078;8.648;2022-12-04T19:04:33;100674.41;;;1.03;79.39
19005;BME280;9635;52.078;8.648;2022-12-04T19:09:37;100670.94;;;1.01;79.22
19005;BME280;9635;52.078;8.648;2022-12-04T19:15:00;100671.06;;;0.98;79.02
19005;BME280;9635;52.078;8.648;2022-12-04T19:20:04;100676.16;;;1.04;78.80
19005;BME280;9635;52.078;8.648;2022-12-04T19:25:08;100671.88;;;1.00;78.66
19005;BME280;9635;52.078;8.648;2022-12-04T19:30:12;100668.03;;;1.09;78.35
19005;BME280;9635;52.078;8.648;2022-12-04T19:35:15;100670.09;;;1.01;78.57
19005;BME280;9635;52.078;8.648;2022-12-04T19:40:20;100672.22;;;1.15;78.29
19005;BME280;9635;52.078;8.648;2022-12-04T19:45:22;100667.81;;;1.15;78.16
19005;BME280;9635;52.078;8.648;2022-12-04T19:50:25;100674.88;;;1.15;77.95
19005;BME280;9635;52.078;8.648;2022-12-04T19:55:29;100674.75;;;1.18;78.10
19005;BME280;9635;52.078;8.648;2022-12-04T20:00:32;100673.56;;;1.26;77.97
19005;BME280;9635;52.078;8.648;2022-12-04T20:05:35;100686.50;;;1.34;77.70
19005;BME280;9635;52.078;8.648;2022-12-04T20:10:40;100677.78;;;1.32;77.53
19005;BME280;9635;52.078;8.648;2022-12-04T20:15:43;100687.09;;;1.19;77.93
19005;BME280;9635;52.078;8.648;2022-12-04T20:20:53;100682.25;;;1.30;77.83
19005;BME280;9635;52.078;8.648;2022-12-04T20:26:02;100680.34;;;1.34;77.40
19005;BME280;9635;52.078;8.648;2022-12-04T20:31:10;100672.59;;;1.29;77.52
19005;BME280;9635;52.078;8.648;2022-12-04T20:36:14;100675.91;;;1.34;77.46
19005;BME280;9635;52.078;8.648;2022-12-04T20:41:20;100672.59;;;1.29;77.59
19005;BME280;9635;52.078;8.648;2022-12-04T20:46:25;100670.84;;;1.28;77.56
19005;BME280;9635;52.078;8.648;2022-12-04T20:51:31;100664.69;;;1.27;77.98
19005;BME280;9635;52.078;8.648;2022-12-04T20:56:36;100668.19;;;1.28;77.76
19005;BME280;9635;52.078;8.648;2022-12-04T21:01:39;100663.97;;;1.24;78.06
19005;BME280;9635;52.078;8.648;2022-12-04T21:06:44;100673.63;;;1.25;77.99
19005;BME280;9635;52.078;8.648;2022-12-04T21:11:49;100651.47;;;1.27;77.84
19005;BME280;9635;52.078;8.648;2022-12-04T21:16:52;100648.78;;;1.29;77.95
19005;BME280;9635;52.078;8.648;2022-12-04T21:21:55;100654.81;;;1.33;77.82
19005;BME280;9635;52.078;8.648;2022-12-04T21:26:59;100645.03;;;1.35;77.94
19005;BME280;9635;52.078;8.648;2022-12-04T21:32:03;100643.28;;;1.34;78.10
19005;BME280;9635;52.078;8.648;2022-12-04T21:37:06;100634.84;;;1.24;77.93
19005;BME280;9635;52.078;8.648;2022-12-04T21:42:11;100638.06;;;1.32;77.82
19005;BME280;9635;52.078;8.648;2022-12-04T21:47:32;100629.56;;;1.24;78.27
19005;BME280;9635;52.078;8.648;2022-12-04T21:52:35;100633.81;;;1.28;78.27
19005;BME280;9635;52.078;8.648;2022-12-04T21:57:39;100629.47;;;1.25;78.10
19005;BME280;9635;52.078;8.648;2022-12-04T22:02:42;100620.22;;;1.37;78.13
19005;BME280;9635;52.078;8.648;2022-12-04T22:07:45;100622.91;;;1.36;78.13
19005;BME280;9635;52.078;8.648;2022-12-04T22:12:49;100630.00;;;1.35;77.78
19005;BME280;9635;52.078;8.648;2022-12-04T22:17:52;100624.50;;;1.40;77.85
19005;BME280;9635;52.078;8.648;2022-12-04T22:22:55;100625.28;;;1.43;77.81
19005;BME280;9635;52.078;8.648;2022-12-04T22:27:59;100632.44;;;1.40;77.81
19005;BME280;9635;52.078;8.648;2022-12-04T22:33:02;100620.84;;;1.44;77.80
19005;BME280;9635;52.078;8.648;2022-12-04T22:38:05;100623.66;;;1.39;78.25
19005;BME280;9635;52.078;8.648;2022-12-04T22:43:09;100626.25;;;1.41;78.21
19005;BME280;9635;52.078;8.648;2022-12-04T22:48:12;100631.47;;;1.42;78.15
19005;BME280;9635;52.078;8.648;2022-12-04T22:53:15;100634.13;;;1.42;78.77
19005;BME280;9635;52.078;8.648;2022-12-04T22:58:20;100629.72;;;1.43;78.38
19005;BME280;9635;52.078;8.648;2022-12-04T23:03:23;100621.56;;;1.47;78.46
19005;BME280;9635;52.078;8.648;2022-12-04T23:08:26;100623.53;;;1.42;78.54
19005;BME280;9635;52.078;8.648;2022-12-04T23:13:30;100621.22;;;1.35;78.91
19005;BME280;9635;52.078;8.648;2022-12-04T23:18:34;100622.50;;;1.46;78.53
19005;BME280;9635;52.078;8.648;2022-12-04T23:23:39;100624.28;;;1.46;78.74
19005;BME280;9635;52.078;8.648;2022-12-04T23:28:44;100624.22;;;1.47;78.49
19005;BME280;9635;52.078;8.648;2022-12-04T23:33:47;100610.25;;;1.44;78.62
19005;BME280;9635;52.078;8.648;2022-12-04T23:38:50;100613.56;;;1.49;78.46
19005;BME280;9635;52.078;8.648;2022-12-04T23:43:55;100618.06;;;1.47;78.70
19005;BME280;9635;52.078;8.648;2022-12-04T23:48:58;100609.56;;;1.39;79.18
19005;BME280;9635;52.078;8.648;2022-12-04T23:54:02;100616.66;;;1.38;79.20
19005;BME280;9635;52.078;8.648;2022-12-04T23:59:06;100609.25;;;1.46;79.04
